Time,TemperatureF,DewpointF,PressureIn,WindDirection,WindDirectionDegrees,WindSpeedMPH,WindSpeedGustMPH,Humidity,HourlyPrecipIn,Conditions,Clouds,dailyrainin,SolarRadiationWatts/m^2,SoftwareType,DateUTC
2013-09-14 00:02:00,48.0,48.0,-100.00,SSW,213,1.0,4.0,100,0.00,,,0.19,0.000000,,2013-09-14 08:02:00,
2013-09-14 00:12:00,48.0,48.0,-100.00,SSW,213,1.0,4.0,100,0.00,,,0.19,0.000000,,2013-09-14 08:12:00,
2013-09-14 00:21:00,48.0,48.0,-100.00,SSW,213,1.0,4.0,100,0.00,,,0.19,0.000000,,2013-09-14 08:21:00,
2013-09-14 00:52:00,48.0,48.0,-100.00,ESE,119,1.0,2.0,100,0.00,,,0.19,0.000000,,2013-09-14 08:52:00,
2013-09-14 01:02:00,48.0,48.0,-100.00,ESE,119,1.0,2.0,100,0.00,,,0.19,0.000000,,2013-09-14 09:02:00,
2013-09-14 01:12:00,48.0,48.0,-100.00,ESE,119,1.0,2.0,100,0.00,,,0.19,0.000000,,2013-09-14 09:12:00,
2013-09-14 01:21:00,48.0,48.0,-100.00,ESE,119,1.0,2.0,100,0.00,,,0.19,0.000000,,2013-09-14 09:21:00,
2013-09-14 01:53:00,48.0,48.0,-100.00,SSE,155,1.0,2.0,100,0.01,,,0.16,0.000000,,2013-09-14 09:53:00,
2013-09-14 02:03:00,48.0,48.0,-100.00,SSE,155,1.0,2.0,100,0.01,,,0.16,0.000000,,2013-09-14 10:03:00,
2013-09-14 02:12:00,48.0,48.0,-100.00,SSE,155,1.0,2.0,100,0.01,,,0.16,0.000000,,2013-09-14 10:12:00,
2013-09-14 02:23:00,48.0,48.0,-100.00,SSE,155,1.0,2.0,100,0.01,,,0.16,0.000000,,2013-09-14 10:23:00,
2013-09-14 02:53:00,44.0,44.0,-100.00,SSW,210,1.0,2.0,100,0.00,,,0.15,0.000000,,2013-09-14 10:53:00,
2013-09-14 03:02:00,44.0,44.0,-100.00,SSW,210,1.0,2.0,100,0.00,,,0.15,0.000000,,2013-09-14 11:02:00,
2013-09-14 03:12:00,44.0,44.0,-100.00,SSW,210,1.0,2.0,100,0.00,,,0.15,0.000000,,2013-09-14 11:12:00,
2013-09-14 03:22:00,44.0,44.0,-100.00,SSW,210,1.0,2.0,100,0.00,,,0.15,0.000000,,2013-09-14 11:22:00,
2013-09-14 03:52:00,43.0,43.0,-100.00,ENE,75,2.0,4.0,100,0.00,,,0.14,0.000000,,2013-09-14 11:52:00,
2013-09-14 04:02:00,43.0,43.0,-100.00,ENE,75,2.0,4.0,100,0.00,,,0.14,0.000000,,2013-09-14 12:02:00,
2013-09-14 04:12:00,43.0,43.0,-100.00,ENE,75,2.0,4.0,100,0.00,,,0.14,0.000000,,2013-09-14 12:12:00,
2013-09-14 04:22:00,43.0,43.0,-100.00,ENE,75,2.0,4.0,100,0.00,,,0.14,0.000000,,2013-09-14 12:22:00,
2013-09-14 04:52:00,41.0,41.0,-100.00,East,87,1.0,4.0,100,0.00,,,0.09,0.000000,,2013-09-14 12:52:00,
2013-09-14 05:01:00,41.0,41.0,-100.00,East,87,1.0,4.0,100,0.00,,,0.09,0.000000,,2013-09-14 13:01:00,
2013-09-14 05:12:00,41.0,41.0,-100.00,East,87,1.0,4.0,100,0.00,,,0.09,0.000000,,2013-09-14 13:12:00,
2013-09-14 05:21:00,41.0,41.0,-100.00,East,87,1.0,4.0,100,0.00,,,0.09,0.000000,,2013-09-14 13:21:00,
2013-09-14 05:52:00,42.0,42.0,-100.00,SSE,155,1.0,4.0,100,0.00,,,0.09,0.000000,,2013-09-14 13:52:00,
2013-09-14 06:02:00,42.0,42.0,-100.00,SSE,155,1.0,4.0,100,0.00,,,0.09,0.000000,,2013-09-14 14:02:00,
2013-09-14 06:11:00,42.0,42.0,-100.00,SSE,155,1.0,4.0,100,0.00,,,0.09,0.000000,,2013-09-14 14:11:00,
2013-09-14 06:21:00,42.0,42.0,-100.00,SSE,155,1.0,4.0,100,0.00,,,0.09,0.000000,,2013-09-14 14:21:00,
2013-09-14 06:52:00,39.0,39.0,-100.00,ESE,105,1.0,5.0,100,0.00,,,0.09,0.000000,,2013-09-14 14:52:00,
2013-09-14 07:02:00,39.0,39.0,-100.00,ESE,105,1.0,5.0,100,0.00,,,0.09,0.000000,,2013-09-14 15:02:00,
2013-09-14 07:11:00,39.0,39.0,-100.00,ESE,105,1.0,5.0,100,0.00,,,0.09,0.000000,,2013-09-14 15:11:00,
2013-09-14 07:22:00,39.0,39.0,-100.00,ESE,105,1.0,5.0,100,0.00,,,0.09,0.000000,,2013-09-14 15:22:00,
2013-09-14 07:53:00,40.0,40.0,-100.00,ESE,117,1.0,4.0,100,0.00,,,0.09,0.000000,,2013-09-14 15:53:00,
2013-09-14 08:03:00,40.0,40.0,-100.00,ESE,117,1.0,4.0,100,0.00,,,0.09,0.000000,,2013-09-14 16:03:00,
2013-09-14 08:13:00,40.0,40.0,-100.00,ESE,117,1.0,4.0,100,0.00,,,0.09,0.000000,,2013-09-14 16:13:00,
2013-09-14 08:23:00,40.0,40.0,-100.00,ESE,117,1.0,4.0,100,0.00,,,0.09,0.000000,,2013-09-14 16:23:00,
2013-09-14 08:54:00,39.0,39.0,-100.00,East,96,2.0,5.0,100,0.00,,,0.06,7.000000,,2013-09-14 16:54:00,
2013-09-14 09:03:00,39.0,39.0,-100.00,East,96,2.0,5.0,100,0.00,,,0.06,7.000000,,2013-09-14 17:03:00,
2013-09-14 09:11:00,39.0,39.0,-100.00,East,96,2.0,5.0,100,0.00,,,0.06,7.000000,,2013-09-14 17:11:00,
2013-09-14 09:23:00,39.0,39.0,-100.00,East,96,2.0,5.0,100,0.00,,,0.06,7.000000,,2013-09-14 17:23:00,
2013-09-14 09:54:00,42.0,42.0,-100.00,SE,127,2.0,3.0,100,0.00,,,0.06,42.000000,,2013-09-14 17:54:00,
2013-09-14 10:02:00,42.0,42.0,-100.00,SE,127,2.0,3.0,100,0.00,,,0.06,42.000000,,2013-09-14 18:02:00,
2013-09-14 10:12:00,42.0,42.0,-100.00,SE,127,2.0,3.0,100,0.00,,,0.06,42.000000,,2013-09-14 18:12:00,
2013-09-14 10:21:00,42.0,42.0,-100.00,SE,127,2.0,3.0,100,0.00,,,0.06,42.000000,,2013-09-14 18:21:00,
2013-09-14 10:52:00,47.0,47.0,-100.00,East,88,2.0,5.0,100,0.00,,,0.06,212.000000,,2013-09-14 18:52:00,
2013-09-14 11:02:00,47.0,47.0,-100.00,East,88,2.0,5.0,100,0.00,,,0.06,212.000000,,2013-09-14 19:02:00,
2013-09-14 11:11:00,47.0,47.0,-100.00,East,88,2.0,5.0,100,0.00,,,0.06,212.000000,,2013-09-14 19:11:00,
2013-09-14 11:22:00,47.0,47.0,-100.00,East,88,2.0,5.0,100,0.00,,,0.06,212.000000,,2013-09-14 19:22:00,
2013-09-14 11:52:00,52.0,52.0,-100.00,North,0,2.0,5.0,100,0.00,,,0.06,225.000000,,2013-09-14 19:52:00,
2013-09-14 12:02:00,52.0,52.0,-100.00,North,0,2.0,5.0,100,0.00,,,0.06,225.000000,,2013-09-14 20:02:00,
2013-09-14 12:12:00,52.0,52.0,-100.00,North,0,2.0,5.0,100,0.00,,,0.06,225.000000,,2013-09-14 20:12:00,
2013-09-14 12:22:00,52.0,52.0,-100.00,North,0,2.0,5.0,100,0.00,,,0.06,225.000000,,2013-09-14 20:22:00,
2013-09-14 12:52:00,57.0,52.0,-100.00,East,99,3.0,4.0,82,0.00,,,0.06,496.000000,,2013-09-14 20:52:00,
2013-09-14 13:02:00,57.0,52.0,-100.00,East,99,3.0,4.0,82,0.00,,,0.06,496.000000,,2013-09-14 21:02:00,
2013-09-14 13:11:00,57.0,52.0,-100.00,East,99,3.0,4.0,82,0.00,,,0.06,496.000000,,2013-09-14 21:11:00,
2013-09-14 13:22:00,57.0,52.0,-100.00,East,99,3.0,4.0,82,0.00,,,0.06,496.000000,,2013-09-14 21:22:00,
2013-09-14 13:54:00,60.0,52.0,-100.00,ESE,102,3.0,5.0,74,0.00,,,0.06,554.000000,,2013-09-14 21:54:00,
2013-09-14 14:04:00,60.0,52.0,-100.00,ESE,102,3.0,5.0,74,0.00,,,0.06,554.000000,,2013-09-14 22:04:00,
2013-09-14 14:13:00,60.0,52.0,-100.00,ESE,102,3.0,5.0,74,0.00,,,0.06,554.000000,,2013-09-14 22:13:00,
2013-09-14 14:24:00,60.0,52.0,-100.00,ESE,102,3.0,5.0,74,0.00,,,0.06,554.000000,,2013-09-14 22:24:00,
2013-09-14 14:53:00,63.0,50.0,-100.00,East,96,3.0,6.0,63,0.00,,,0.06,535.000000,,2013-09-14 22:53:00,
2013-09-14 15:03:00,63.0,50.0,-100.00,East,96,3.0,6.0,63,0.00,,,0.06,535.000000,,2013-09-14 23:03:00,
2013-09-14 15:11:00,63.0,50.0,-100.00,East,96,3.0,6.0,63,0.00,,,0.06,535.000000,,2013-09-14 23:11:00,
2013-09-14 15:23:00,63.0,50.0,-100.00,East,96,3.0,6.0,63,0.00,,,0.06,535.000000,,2013-09-14 23:23:00,
2013-09-14 15:53:00,63.0,51.0,-100.00,ESE,118,3.0,7.0,64,0.00,,,0.06,403.000000,,2013-09-14 23:53:00,
2013-09-14 16:02:00,63.0,51.0,-100.00,ESE,118,3.0,7.0,64,0.00,,,0.06,403.000000,,2013-09-15 00:02:00,
2013-09-14 16:12:00,63.0,51.0,-100.00,ESE,118,3.0,7.0,64,0.00,,,0.06,403.000000,,2013-09-15 00:12:00,
2013-09-14 16:22:00,63.0,51.0,-100.00,ESE,118,3.0,7.0,64,0.00,,,0.06,403.000000,,2013-09-15 00:22:00,
2013-09-14 16:53:00,65.0,49.0,-100.00,SE,125,3.0,7.0,57,0.00,,,0.06,440.000000,,2013-09-15 00:53:00,
2013-09-14 17:01:00,65.0,49.0,-100.00,SE,125,3.0,7.0,57,0.00,,,0.06,440.000000,,2013-09-15 01:01:00,
2013-09-14 17:11:00,65.0,49.0,-100.00,SE,125,3.0,7.0,57,0.00,,,0.06,440.000000,,2013-09-15 01:11:00,
2013-09-14 17:22:00,65.0,49.0,-100.00,SE,125,3.0,7.0,57,0.00,,,0.06,440.000000,,2013-09-15 01:22:00,
2013-09-14 17:52:00,66.0,51.0,-100.00,SE,124,3.0,6.0,58,0.00,,,0.06,351.000000,,2013-09-15 01:52:00,
2013-09-14 18:02:00,66.0,51.0,-100.00,SE,124,3.0,6.0,58,0.00,,,0.06,351.000000,,2013-09-15 02:02:00,
2013-09-14 18:12:00,66.0,51.0,-100.00,SE,124,3.0,6.0,58,0.00,,,0.06,351.000000,,2013-09-15 02:12:00,
2013-09-14 18:22:00,66.0,51.0,-100.00,SE,124,3.0,6.0,58,0.00,,,0.06,351.000000,,2013-09-15 02:22:00,
2013-09-14 18:52:00,65.0,50.0,-100.00,NNW,343,1.0,4.0,58,0.00,,,0.06,226.000000,,2013-09-15 02:52:00,
2013-09-14 19:02:00,65.0,50.0,-100.00,NNW,343,1.0,4.0,58,0.00,,,0.06,226.000000,,2013-09-15 03:02:00,
2013-09-14 19:11:00,65.0,50.0,-100.00,NNW,343,1.0,4.0,58,0.00,,,0.06,226.000000,,2013-09-15 03:11:00,
2013-09-14 19:21:00,65.0,50.0,-100.00,NNW,343,1.0,4.0,58,0.00,,,0.06,226.000000,,2013-09-15 03:21:00,
2013-09-14 19:55:00,59.0,47.0,-100.00,NNW,343,1.0,2.0,65,0.00,,,0.06,96.000000,,2013-09-15 03:55:00,
2013-09-14 20:02:00,-999.0,-99.9,-100.00,NNW,343,1.0,2.0,-999,-99.99,,,-99.99,96.000000,,2013-09-15 04:02:00,
2013-09-14 20:13:00,59.0,47.0,-100.00,NNW,343,1.0,2.0,65,0.00,,,0.06,96.000000,,2013-09-15 04:13:00,
2013-09-14 20:24:00,59.0,47.0,-100.00,NNW,343,1.0,2.0,65,0.00,,,0.06,96.000000,,2013-09-15 04:24:00,
2013-09-14 20:54:00,53.0,51.0,-100.00,South,185,1.0,3.0,92,0.00,,,0.06,19.000000,,2013-09-15 04:54:00,
2013-09-14 21:03:00,53.0,51.0,-100.00,South,185,1.0,3.0,92,0.00,,,0.06,19.000000,,2013-09-15 05:03:00,
2013-09-14 21:13:00,53.0,51.0,-100.00,South,185,1.0,3.0,92,0.00,,,0.06,19.000000,,2013-09-15 05:13:00,
2013-09-14 21:22:00,53.0,51.0,-100.00,South,185,1.0,3.0,92,0.00,,,0.06,19.000000,,2013-09-15 05:22:00,
2013-09-14 21:52:00,52.0,52.0,-100.00,South,176,1.0,2.0,99,0.00,,,0.03,0.000000,,2013-09-15 05:52:00,
2013-09-14 22:02:00,52.0,52.0,-100.00,South,176,1.0,2.0,99,0.00,,,0.03,0.000000,,2013-09-15 06:02:00,
2013-09-14 22:12:00,52.0,52.0,-100.00,South,176,1.0,2.0,99,0.00,,,0.03,0.000000,,2013-09-15 06:12:00,
2013-09-14 22:21:00,52.0,52.0,-100.00,South,176,1.0,2.0,99,0.00,,,0.03,0.000000,,2013-09-15 06:21:00,
2013-09-14 22:52:00,51.0,50.0,-100.00,SE,146,1.0,6.0,96,0.00,,,0.01,0.000000,,2013-09-15 06:52:00,
2013-09-14 23:02:00,51.0,50.0,-100.00,SE,146,1.0,6.0,96,0.00,,,0.01,0.000000,,2013-09-15 07:02:00,
2013-09-14 23:11:00,51.0,50.0,-100.00,SE,146,1.0,6.0,96,0.00,,,0.01,0.000000,,2013-09-15 07:11:00,
2013-09-14 23:22:00,51.0,50.0,-100.00,SE,146,1.0,6.0,96,0.00,,,0.01,0.000000,,2013-09-15 07:22:00,
2013-09-14 23:52:00,48.0,45.0,-100.00,WSW,238,2.0,6.0,91,0.00,,,0.01,0.000000,,2013-09-15 07:52:00,